Seihou Maru — JD3992 — position and weather

sailwx.info

Track history (hours):
 
Tides and Currents Weather Stations Pressure Air Temp Water Temp Dewpoint Dewpoint Depression Visibility Wind Speed Wind Dir Waves Ship Positions

Seihou Maru

Last reported at 2017-Dec-11 16:43 UTC. Time now 2017-Dec-13 05:25 UTC.
Position N 35°34' E 139°55'.

Length 75 m; draft 4.6 m.

Type: Cargo ship. MMSI: 431007426.

Date/timePositionNaut miles runAvg speedWind from/ knotsBaromVisibWave heightAir tempDewpointWater temp
2017-Dec-11 16:43N 35°34' E 139°55'0 0.1
2017-Dec-11 16:20N 35°34' E 139°55'0 0.0
2017-Dec-11 15:59N 35°34' E 139°55'0 0.0
2017-Dec-11 15:27N 35°34' E 139°55'0 0.0
2017-Dec-11 14:53N 35°34' E 139°55'0 0.0
2017-Dec-11 14:19N 35°34' E 139°55'0 0.0
2017-Dec-11 13:41N 35°34' E 139°55'0 0.0
2017-Dec-11 13:30N 35°34' E 139°55'0 0.0
2017-Dec-11 12:15N 35°34' E 139°55'0 0.0
2017-Dec-11 11:53N 35°34' E 139°55'0 0.0
2017-Dec-11 11:25N 35°34' E 139°55'0 0.0
2017-Dec-11 10:56N 35°34' E 139°55'0 0.1
2017-Dec-11 10:27N 35°34' E 139°55'1 2.7
2017-Dec-11 10:00N 35°33' E 139°56'612.7
2017-Dec-11 09:30N 35°28' E 139°51'613.0
2017-Dec-11 09:00N 35°24' E 139°46'612.2
2017-Dec-11 08:30N 35°18' E 139°45'612.3
2017-Dec-11 08:01N 35°12' E 139°47'612.6
2017-Dec-11 07:30N 35°05' E 139°45'713.4
2017-Dec-11 07:00N 35°01' E 139°39'714.4
2017-Dec-11 06:30N 34°57' E 139°31'915.0
2017-Dec-11 05:55N 34°52' E 139°23'914.0
2017-Dec-11 05:15N 34°46' E 139°14'413.7
2017-Dec-11 04:59N 34°44' E 139°10'713.5
2017-Dec-11 04:30N 34°40' E 139°04'713.5
2017-Dec-11 04:00N 34°36' E 138°57'712.4
2017-Dec-11 03:28N 34°35' E 138°49'613.0
2017-Dec-11 03:00N 34°35' E 138°42'713.6
2017-Dec-11 02:29N 34°35' E 138°33'713.7
2017-Dec-11 01:56N 34°34' E 138°24'613.7
2017-Dec-11 01:30N 34°33' E 138°17'814.0
2017-Dec-11 00:57N 34°33' E 138°08'15910.9
2017-Dec-10 10:24N 33°53' E 135°01'713.3
2017-Dec-10 09:51N 34°01' E 135°02'513.0
2017-Dec-10 09:30N 34°05' E 135°03'510.9
2017-Dec-10 09:01N 34°09' E 135°07'4 7.8
2017-Dec-10 08:31N 34°09' E 135°12'0 0.0
2017-Dec-10 08:00N 34°09' E 135°12'0 0.0
2017-Dec-10 07:31N 34°09' E 135°12'0 0.0
2017-Dec-10 07:00N 34°09' E 135°12'0 0.0
2017-Dec-10 06:25N 34°09' E 135°12'0 0.0
2017-Dec-10 05:58N 34°09' E 135°12'0 0.0
2017-Dec-10 05:30N 34°09' E 135°12'0 0.0
2017-Dec-10 05:00N 34°09' E 135°12'0 0.0
2017-Dec-10 04:27N 34°09' E 135°12'0 0.0
2017-Dec-10 03:51N 34°09' E 135°12'0 0.0
2017-Dec-10 03:27N 34°09' E 135°12'0 0.0
2017-Dec-10 02:57N 34°09' E 135°12'0 0.0
2017-Dec-10 02:30N 34°09' E 135°12'0 0.0
2017-Dec-10 02:00N 34°09' E 135°12'0 0.0
2017-Dec-10 01:30N 34°09' E 135°12'0 0.0
2017-Dec-10 00:57N 34°09' E 135°12'0 0.0
2017-Dec-10 00:27N 34°09' E 135°12'0 0.0
2017-Dec-09 23:54N 34°09' E 135°12'0 0.0
2017-Dec-09 23:30N 34°09' E 135°12'0 0.0
2017-Dec-09 23:00N 34°09' E 135°12'0 0.5
2017-Dec-09 22:30N 34°09' E 135°12'2 4.7
2017-Dec-09 22:00N 34°10' E 135°09'0 0.2
2017-Dec-09 21:28N 34°10' E 135°09'0 0.1
2017-Dec-09 20:58N 34°10' E 135°09'0 0.1
2017-Dec-09 20:28N 34°10' E 135°09'0 0.0
2017-Dec-09 19:58N 34°10' E 135°09'0 0.0
2017-Dec-09 19:28N 34°10' E 135°09'0 0.0
2017-Dec-09 18:58N 34°10' E 135°09'0 0.0
2017-Dec-09 18:28N 34°10' E 135°09'0 0.0
2017-Dec-09 17:58N 34°10' E 135°09'0 0.0
2017-Dec-09 17:28N 34°10' E 135°09'0 0.0
2017-Dec-09 16:58N 34°10' E 135°09'0 0.0
2017-Dec-09 16:28N 34°10' E 135°09'0 0.0
2017-Dec-09 15:58N 34°10' E 135°09'0 0.0
2017-Dec-09 15:28N 34°10' E 135°09'0 0.0
2017-Dec-09 14:58N 34°10' E 135°09'0 0.0
2017-Dec-09 14:28N 34°10' E 135°09'1 3.1
2017-Dec-09 14:01N 34°10' E 135°07'4 8.4
2017-Dec-09 13:31N 34°14' E 135°06'1 1.9
2017-Dec-09 12:59N 34°15' E 135°07'0 0.0
2017-Dec-09 12:29N 34°15' E 135°07'0 0.0
2017-Dec-09 11:59N 34°15' E 135°07'0 0.0
2017-Dec-09 11:29N 34°15' E 135°07'0 0.0
2017-Dec-09 11:00N 34°15' E 135°07'0 0.0
2017-Dec-09 10:30N 34°15' E 135°07'0 0.0
2017-Dec-09 09:58N 34°15' E 135°07'0 0.2
2017-Dec-09 09:29N 34°15' E 135°07'0 0.0
2017-Dec-09 08:56N 34°15' E 135°07'0 0.0
2017-Dec-09 08:29N 34°15' E 135°07'0 0.0
2017-Dec-09 07:59N 34°15' E 135°07'0 0.0
2017-Dec-09 07:29N 34°15' E 135°07'0 0.0
2017-Dec-09 06:59N 34°15' E 135°07'0 0.0
2017-Dec-09 06:23N 34°15' E 135°07'0 0.7
2017-Dec-09 05:59N 34°14' E 135°07'0 0.6
2017-Dec-09 05:28N 34°15' E 135°07'0 0.1
2017-Dec-09 04:58N 34°14' E 135°07'0 0.0
2017-Dec-09 04:28N 34°15' E 135°07'0 0.0
2017-Dec-09 04:00N 34°15' E 135°07'0 0.0
2017-Dec-09 03:30N 34°15' E 135°07'0 0.0
2017-Dec-09 03:00N 34°15' E 135°07'0 0.0
2017-Dec-09 02:30N 34°15' E 135°07'0 0.0
2017-Dec-09 02:00N 34°15' E 135°07'0 0.0
2017-Dec-09 01:30N 34°15' E 135°07'0 0.0
2017-Dec-09 01:00N 34°15' E 135°07'0 0.1
2017-Dec-09 00:30N 34°14' E 135°07'0 0.0
2017-Dec-09 00:00N 34°14' E 135°07'0 0.3
2017-Dec-08 23:30N 34°15' E 135°07'2 4.0
2017-Dec-08 23:00N 34°14' E 135°05'2 4.1
2017-Dec-08 22:31N 34°12' E 135°05'1 2.7
2017-Dec-08 22:00N 34°12' E 135°06'0 0.0
2017-Dec-08 21:30N 34°12' E 135°06'0 0.0
2017-Dec-08 21:00N 34°12' E 135°06'0 0.0
2017-Dec-08 20:30N 34°12' E 135°06'0 0.0
2017-Dec-08 20:00N 34°12' E 135°06'0 0.0
2017-Dec-08 19:30N 34°12' E 135°06'0 0.0
2017-Dec-08 19:00N 34°12' E 135°06'0 0.0
2017-Dec-08 18:30N 34°12' E 135°06'0 0.0
2017-Dec-08 18:00N 34°12' E 135°06'0 0.0
2017-Dec-08 17:30N 34°12' E 135°06'0 0.0
2017-Dec-08 17:00N 34°12' E 135°06'0 0.0
2017-Dec-08 16:30N 34°12' E 135°06'0 0.0
2017-Dec-08 16:00N 34°12' E 135°06'0 0.0
2017-Dec-08 15:30N 34°12' E 135°06'0 0.0
2017-Dec-08 15:00N 34°12' E 135°06'0 0.0
2017-Dec-08 14:30N 34°12' E 135°06'0 0.0
2017-Dec-08 14:00N 34°12' E 135°06'0 0.1
2017-Dec-08 13:30N 34°12' E 135°06'0 0.0
2017-Dec-08 13:00N 34°12' E 135°06'0 0.0
2017-Dec-08 12:30N 34°12' E 135°06'0 0.0
2017-Dec-08 12:00N 34°12' E 135°06'0 0.0
2017-Dec-08 11:30N 34°12' E 135°06'0 0.0
2017-Dec-08 11:00N 34°12' E 135°06'0 0.0
2017-Dec-08 10:30N 34°12' E 135°06'0 0.0
2017-Dec-08 10:00N 34°12' E 135°06'0 0.0
2017-Dec-08 09:30N 34°12' E 135°06'2 4.9
2017-Dec-08 09:00N 34°14' E 135°05'3 6.9
2017-Dec-08 08:30N 34°17' E 135°04'713.8
2017-Dec-08 08:00N 34°23' E 135°08'713.2
2017-Dec-08 07:30N 34°28' E 135°13'612.2
2017-Dec-08 07:00N 34°33' E 135°18'611.4
2017-Dec-08 06:31N 34°36' E 135°23'3 4.2
2017-Dec-08 05:52N 34°35' E 135°26'0 0.0
2017-Dec-08 05:28N 34°35' E 135°26'0 0.0
2017-Dec-08 04:58N 34°35' E 135°26'0 0.4
2017-Dec-08 04:28N 34°35' E 135°26'0 0.9
2017-Dec-08 04:00N 34°35' E 135°27'0 0.5
2017-Dec-08 03:25N 34°34' E 135°27'0 0.0
2017-Dec-08 02:58N 34°34' E 135°27'0 0.1
2017-Dec-08 02:28N 34°35' E 135°27'0 0.1
2017-Dec-08 01:58N 34°35' E 135°27'0 0.0
2017-Dec-08 01:28N 34°35' E 135°27'0 0.0
2017-Dec-08 00:55N 34°35' E 135°27'0 0.1
2017-Dec-08 00:25N 34°35' E 135°27'0 0.0
2017-Dec-07 23:46N 34°35' E 135°27'0 0.0
2017-Dec-07 23:28N 34°35' E 135°27'0 0.0
2017-Dec-07 22:58N 34°35' E 135°27'0 0.0
2017-Dec-07 22:28N 34°35' E 135°27'0 0.0
2017-Dec-07 21:55N 34°35' E 135°27'0 0.0
2017-Dec-07 21:28N 34°35' E 135°27'0 0.0
2017-Dec-07 20:55N 34°35' E 135°27'0 0.0
2017-Dec-07 20:28N 34°35' E 135°27'0 0.0
2017-Dec-07 19:58N 34°35' E 135°27'0 0.0
2017-Dec-07 19:28N 34°35' E 135°27'0 0.0
2017-Dec-07 18:58N 34°35' E 135°27'0 0.0
2017-Dec-07 18:28N 34°35' E 135°27'0 0.0
2017-Dec-07 17:58N 34°35' E 135°27'0 0.0
2017-Dec-07 17:28N 34°35' E 135°27'0 0.0
2017-Dec-07 16:55N 34°35' E 135°27'0 0.0
2017-Dec-07 16:25N 34°35' E 135°27'0 0.0
2017-Dec-07 15:58N 34°35' E 135°27'0 0.0
2017-Dec-07 15:28N 34°35' E 135°27'0 0.0
2017-Dec-07 14:58N 34°35' E 135°27'0 0.0
2017-Dec-07 14:25N 34°35' E 135°27'0 0.0
2017-Dec-07 13:55N 34°35' E 135°27'0 0.0
2017-Dec-07 13:28N 34°35' E 135°27'0 0.0
2017-Dec-07 12:58N 34°35' E 135°27'0 0.1
2017-Dec-07 12:30N 34°35' E 135°27'3 6.0
2017-Dec-07 12:00N 34°36' E 135°24'510.8
2017-Dec-07 11:30N 34°33' E 135°18'613.0
2017-Dec-07 11:00N 34°28' E 135°13'612.3
2017-Dec-07 10:30N 34°24' E 135°08'612.2
2017-Dec-07 10:00N 34°19' E 135°04'612.0
2017-Dec-07 09:31N 34°13' E 135°03'612.6
2017-Dec-07 09:00N 34°07' E 135°03'612.6
2017-Dec-07 08:30N 34°00' E 135°02'  
2017-Dec-04 10:30N 35°10' E 139°46'713.1
2017-Dec-04 10:00N 35°17' E 139°45'713.2
2017-Dec-04 09:30N 35°23' E 139°42'612.7
2017-Dec-04 09:00N 35°27' E 139°48'612.7
2017-Dec-04 08:30N 35°32' E 139°53'511.0
2017-Dec-04 08:00N 35°37' E 139°49'1 0.1
2017-Dec-03 23:13N 35°37' E 139°48'0 0.0
2017-Dec-03 21:40N 35°37' E 139°48'0 0.6
2017-Dec-03 21:25N 35°37' E 139°48'0 0.0
2017-Dec-03 20:55N 35°37' E 139°48'0 0.0
2017-Dec-03 20:28N 35°37' E 139°48'0 0.0
2017-Dec-03 19:43N 35°37' E 139°48'0 0.0
2017-Dec-03 19:28N 35°37' E 139°48'0 0.0
2017-Dec-03 18:52N 35°37' E 139°48'0 0.0
2017-Dec-03 18:25N 35°37' E 139°48'0 0.0
2017-Dec-03 17:55N 35°37' E 139°48'0 0.0
2017-Dec-03 17:16N 35°37' E 139°48'0 0.0
2017-Dec-03 16:55N 35°37' E 139°48'0 0.0
2017-Dec-03 16:13N 35°37' E 139°48'0 0.0
2017-Dec-03 15:55N 35°37' E 139°48'0 0.0
2017-Dec-03 15:25N 35°37' E 139°48'0 0.0
2017-Dec-03 14:55N 35°37' E 139°48'0 0.0
2017-Dec-03 13:43N 35°37' E 139°48'0 0.0
2017-Dec-03 12:55N 35°37' E 139°48'0 0.0
2017-Dec-03 12:25N 35°37' E 139°48'0 0.0
2017-Dec-03 11:49N 35°37' E 139°48'0 0.0
2017-Dec-03 11:19N 35°37' E 139°48'0 0.0
2017-Dec-03 10:52N 35°37' E 139°48'0 0.0
2017-Dec-03 10:19N 35°37' E 139°48'0 0.0
2017-Dec-03 09:58N 35°37' E 139°48'0 0.0
2017-Dec-03 09:28N 35°37' E 139°48'0 0.0
2017-Dec-03 08:52N 35°37' E 139°48'0 0.0
2017-Dec-03 08:22N 35°37' E 139°48'0 0.0
2017-Dec-03 07:58N 35°37' E 139°48'0 0.0
2017-Dec-03 06:37N 35°37' E 139°48'0 0.0
2017-Dec-03 06:13N 35°37' E 139°48'0 0.0
2017-Dec-03 04:31N 35°37' E 139°48'0 0.0
2017-Dec-03 04:28N 35°37' E 139°48'0 0.0
2017-Dec-03 03:58N 35°37' E 139°48'0 0.0
2017-Dec-03 03:13N 35°37' E 139°48'0 0.0
2017-Dec-03 02:55N 35°37' E 139°48'0 0.0
2017-Dec-03 02:19N 35°37' E 139°48'0 0.0
2017-Dec-03 01:55N 35°37' E 139°48'0 0.0
2017-Dec-03 01:28N 35°37' E 139°48'0 0.0
2017-Dec-03 00:49N 35°37' E 139°48'0 0.0
2017-Dec-03 00:28N 35°37' E 139°48'0 0.0
2017-Dec-02 23:58N 35°37' E 139°48'0 0.0
2017-Dec-02 23:28N 35°37' E 139°48'0 0.0
2017-Dec-02 22:52N 35°37' E 139°48'0 0.0
2017-Dec-02 22:22N 35°37' E 139°48'0 0.0
2017-Dec-02 21:37N 35°37' E 139°48'0 0.0
2017-Dec-02 21:16N 35°37' E 139°48'0 0.0
2017-Dec-02 20:34N 35°37' E 139°48'0 0.1
2017-Dec-02 20:28N 35°37' E 139°48'0 0.0
2017-Dec-02 19:58N 35°37' E 139°48'0 0.0
2017-Dec-02 19:28N 35°37' E 139°48'0 0.0
2017-Dec-02 18:58N 35°37' E 139°48'0 0.0
2017-Dec-02 18:28N 35°37' E 139°48'0 0.0
2017-Dec-02 17:58N 35°37' E 139°48'0 0.0
2017-Dec-02 17:28N 35°37' E 139°48'0 0.0
2017-Dec-02 16:58N 35°37' E 139°48'0 0.0
2017-Dec-02 16:28N 35°37' E 139°48'0 0.0
2017-Dec-02 15:55N 35°37' E 139°48'0 0.0
2017-Dec-02 15:28N 35°37' E 139°48'0 0.0
2017-Dec-02 14:46N 35°37' E 139°48'0 0.0
2017-Dec-02 14:16N 35°37' E 139°48'0 0.0
2017-Dec-02 13:58N 35°37' E 139°48'0 0.0
2017-Dec-02 13:16N 35°37' E 139°48'0 0.0
2017-Dec-02 12:58N 35°37' E 139°48'0 0.0
2017-Dec-02 12:28N 35°37' E 139°48'0 0.0
2017-Dec-02 11:58N 35°37' E 139°48'0 0.0
2017-Dec-02 11:28N 35°37' E 139°48'0 0.0
2017-Dec-02 10:55N 35°37' E 139°48'0 0.0
2017-Dec-02 10:28N 35°37' E 139°48'0 0.0
2017-Dec-02 09:58N 35°37' E 139°48'0 0.0
2017-Dec-02 09:28N 35°37' E 139°48'0 0.0
2017-Dec-02 08:58N 35°37' E 139°48'0 0.0
2017-Dec-02 08:28N 35°37' E 139°48'0 0.0
2017-Dec-02 07:55N 35°37' E 139°48'0 0.0
2017-Dec-02 07:28N 35°37' E 139°48'0 0.0
2017-Dec-02 06:58N 35°37' E 139°48'0 0.0
2017-Dec-02 06:25N 35°37' E 139°48'0 0.0
2017-Dec-02 05:58N 35°37' E 139°48'0 0.0
2017-Dec-02 05:28N 35°37' E 139°48'0 0.0
2017-Dec-02 04:58N 35°37' E 139°48'0 0.0
2017-Dec-02 04:28N 35°37' E 139°48'0 0.0
2017-Dec-02 03:58N 35°37' E 139°48'0 0.0
2017-Dec-02 03:28N 35°37' E 139°48'0 0.0
2017-Dec-02 02:58N 35°37' E 139°48'0 0.0
2017-Dec-02 02:31N 35°37' E 139°48'0 0.0
2017-Dec-02 02:01N 35°37' E 139°48'0 0.0
2017-Dec-02 01:30N 35°37' E 139°48'0 0.0
2017-Dec-02 01:01N 35°37' E 139°48'0 0.0
2017-Dec-02 00:30N 35°37' E 139°48'0 0.0
2017-Dec-02 00:00N 35°37' E 139°48'0 0.5
2017-Dec-01 23:30N 35°37' E 139°48'4 7.2
2017-Dec-01 23:01N 35°36' E 139°52'1 2.1
2017-Dec-01 22:31N 35°35' E 139°53'0 0.1
2017-Dec-01 21:57N 35°35' E 139°53'0 0.0
2017-Dec-01 20:30N 35°35' E 139°53'0 0.0
2017-Dec-01 19:56N 35°35' E 139°53'0 0.0
2017-Dec-01 19:18N 35°35' E 139°53'0 0.0
2017-Dec-01 18:42N 35°35' E 139°53'0 0.0
2017-Dec-01 18:29N 35°35' E 139°53'0 0.0
2017-Dec-01 17:57N 35°35' E 139°53'0 0.0
2017-Dec-01 17:19N 35°35' E 139°53'0 0.2
2017-Dec-01 17:01N 35°35' E 139°53'  
Track history (hours):
 
Tides and Currents Weather Stations Pressure Air Temp Water Temp Dewpoint Dewpoint Depression Visibility Wind Speed Wind Dir Waves Ship Positions

Seihou Maru

Last reported at 2017-Dec-11 16:43 UTC. Time now 2017-Dec-13 05:25 UTC.
Position N 35°34' E 139°55'.

Length 75 m; draft 4.6 m.

Type: Cargo ship. MMSI: 431007426.

Date/timePositionNaut miles runAvg speedWind from/ knotsBaromVisibWave heightAir tempDewpointWater temp
2017-Dec-11 16:43N 35°34' E 139°55'0 0.1
2017-Dec-11 16:20N 35°34' E 139°55'0 0.0
2017-Dec-11 15:59N 35°34' E 139°55'0 0.0
2017-Dec-11 15:27N 35°34' E 139°55'0 0.0
2017-Dec-11 14:53N 35°34' E 139°55'0 0.0
2017-Dec-11 14:19N 35°34' E 139°55'0 0.0
2017-Dec-11 13:41N 35°34' E 139°55'0 0.0
2017-Dec-11 13:30N 35°34' E 139°55'0 0.0
2017-Dec-11 12:15N 35°34' E 139°55'0 0.0
2017-Dec-11 11:53N 35°34' E 139°55'0 0.0
2017-Dec-11 11:25N 35°34' E 139°55'0 0.0
2017-Dec-11 10:56N 35°34' E 139°55'0 0.1
2017-Dec-11 10:27N 35°34' E 139°55'1 2.7
2017-Dec-11 10:00N 35°33' E 139°56'612.7
2017-Dec-11 09:30N 35°28' E 139°51'613.0
2017-Dec-11 09:00N 35°24' E 139°46'612.2
2017-Dec-11 08:30N 35°18' E 139°45'612.3
2017-Dec-11 08:01N 35°12' E 139°47'612.6
2017-Dec-11 07:30N 35°05' E 139°45'713.4
2017-Dec-11 07:00N 35°01' E 139°39'714.4
2017-Dec-11 06:30N 34°57' E 139°31'915.0
2017-Dec-11 05:55N 34°52' E 139°23'914.0
2017-Dec-11 05:15N 34°46' E 139°14'413.7
2017-Dec-11 04:59N 34°44' E 139°10'713.5
2017-Dec-11 04:30N 34°40' E 139°04'713.5
2017-Dec-11 04:00N 34°36' E 138°57'712.4
2017-Dec-11 03:28N 34°35' E 138°49'613.0
2017-Dec-11 03:00N 34°35' E 138°42'713.6
2017-Dec-11 02:29N 34°35' E 138°33'713.7
2017-Dec-11 01:56N 34°34' E 138°24'613.7
2017-Dec-11 01:30N 34°33' E 138°17'814.0
2017-Dec-11 00:57N 34°33' E 138°08'15910.9
2017-Dec-10 10:24N 33°53' E 135°01'713.3
2017-Dec-10 09:51N 34°01' E 135°02'513.0
2017-Dec-10 09:30N 34°05' E 135°03'510.9
2017-Dec-10 09:01N 34°09' E 135°07'4 7.8
2017-Dec-10 08:31N 34°09' E 135°12'0 0.0
2017-Dec-10 08:00N 34°09' E 135°12'0 0.0
2017-Dec-10 07:31N 34°09' E 135°12'0 0.0
2017-Dec-10 07:00N 34°09' E 135°12'0 0.0
2017-Dec-10 06:25N 34°09' E 135°12'0 0.0
2017-Dec-10 05:58N 34°09' E 135°12'0 0.0
2017-Dec-10 05:30N 34°09' E 135°12'0 0.0
2017-Dec-10 05:00N 34°09' E 135°12'0 0.0
2017-Dec-10 04:27N 34°09' E 135°12'0 0.0
2017-Dec-10 03:51N 34°09' E 135°12'0 0.0
2017-Dec-10 03:27N 34°09' E 135°12'0 0.0
2017-Dec-10 02:57N 34°09' E 135°12'0 0.0
2017-Dec-10 02:30N 34°09' E 135°12'0 0.0
2017-Dec-10 02:00N 34°09' E 135°12'0 0.0
2017-Dec-10 01:30N 34°09' E 135°12'0 0.0
2017-Dec-10 00:57N 34°09' E 135°12'0 0.0
2017-Dec-10 00:27N 34°09' E 135°12'0 0.0
2017-Dec-09 23:54N 34°09' E 135°12'0 0.0
2017-Dec-09 23:30N 34°09' E 135°12'0 0.0
2017-Dec-09 23:00N 34°09' E 135°12'0 0.5
2017-Dec-09 22:30N 34°09' E 135°12'2 4.7
2017-Dec-09 22:00N 34°10' E 135°09'0 0.2
2017-Dec-09 21:28N 34°10' E 135°09'0 0.1
2017-Dec-09 20:58N 34°10' E 135°09'0 0.1
2017-Dec-09 20:28N 34°10' E 135°09'0 0.0
2017-Dec-09 19:58N 34°10' E 135°09'0 0.0
2017-Dec-09 19:28N 34°10' E 135°09'0 0.0
2017-Dec-09 18:58N 34°10' E 135°09'0 0.0
2017-Dec-09 18:28N 34°10' E 135°09'0 0.0
2017-Dec-09 17:58N 34°10' E 135°09'0 0.0
2017-Dec-09 17:28N 34°10' E 135°09'0 0.0
2017-Dec-09 16:58N 34°10' E 135°09'0 0.0
2017-Dec-09 16:28N 34°10' E 135°09'0 0.0
2017-Dec-09 15:58N 34°10' E 135°09'0 0.0
2017-Dec-09 15:28N 34°10' E 135°09'0 0.0
2017-Dec-09 14:58N 34°10' E 135°09'0 0.0
2017-Dec-09 14:28N 34°10' E 135°09'1 3.1
2017-Dec-09 14:01N 34°10' E 135°07'4 8.4
2017-Dec-09 13:31N 34°14' E 135°06'1 1.9
2017-Dec-09 12:59N 34°15' E 135°07'0 0.0
2017-Dec-09 12:29N 34°15' E 135°07'0 0.0
2017-Dec-09 11:59N 34°15' E 135°07'0 0.0
2017-Dec-09 11:29N 34°15' E 135°07'0 0.0
2017-Dec-09 11:00N 34°15' E 135°07'0 0.0
2017-Dec-09 10:30N 34°15' E 135°07'0 0.0
2017-Dec-09 09:58N 34°15' E 135°07'0 0.2
2017-Dec-09 09:29N 34°15' E 135°07'0 0.0
2017-Dec-09 08:56N 34°15' E 135°07'0 0.0
2017-Dec-09 08:29N 34°15' E 135°07'0 0.0
2017-Dec-09 07:59N 34°15' E 135°07'0 0.0
2017-Dec-09 07:29N 34°15' E 135°07'0 0.0
2017-Dec-09 06:59N 34°15' E 135°07'0 0.0
2017-Dec-09 06:23N 34°15' E 135°07'0 0.7
2017-Dec-09 05:59N 34°14' E 135°07'0 0.6
2017-Dec-09 05:28N 34°15' E 135°07'0 0.1
2017-Dec-09 04:58N 34°14' E 135°07'0 0.0
2017-Dec-09 04:28N 34°15' E 135°07'0 0.0
2017-Dec-09 04:00N 34°15' E 135°07'0 0.0
2017-Dec-09 03:30N 34°15' E 135°07'0 0.0
2017-Dec-09 03:00N 34°15' E 135°07'0 0.0
2017-Dec-09 02:30N 34°15' E 135°07'0 0.0
2017-Dec-09 02:00N 34°15' E 135°07'0 0.0
2017-Dec-09 01:30N 34°15' E 135°07'0 0.0
2017-Dec-09 01:00N 34°15' E 135°07'0 0.1
2017-Dec-09 00:30N 34°14' E 135°07'0 0.0
2017-Dec-09 00:00N 34°14' E 135°07'0 0.3
2017-Dec-08 23:30N 34°15' E 135°07'2 4.0
2017-Dec-08 23:00N 34°14' E 135°05'2 4.1
2017-Dec-08 22:31N 34°12' E 135°05'1 2.7
2017-Dec-08 22:00N 34°12' E 135°06'0 0.0
2017-Dec-08 21:30N 34°12' E 135°06'0 0.0
2017-Dec-08 21:00N 34°12' E 135°06'0 0.0
2017-Dec-08 20:30N 34°12' E 135°06'0 0.0
2017-Dec-08 20:00N 34°12' E 135°06'0 0.0
2017-Dec-08 19:30N 34°12' E 135°06'0 0.0
2017-Dec-08 19:00N 34°12' E 135°06'0 0.0
2017-Dec-08 18:30N 34°12' E 135°06'0 0.0
2017-Dec-08 18:00N 34°12' E 135°06'0 0.0
2017-Dec-08 17:30N 34°12' E 135°06'0 0.0
2017-Dec-08 17:00N 34°12' E 135°06'0 0.0
2017-Dec-08 16:30N 34°12' E 135°06'0 0.0
2017-Dec-08 16:00N 34°12' E 135°06'0 0.0
2017-Dec-08 15:30N 34°12' E 135°06'0 0.0
2017-Dec-08 15:00N 34°12' E 135°06'0 0.0
2017-Dec-08 14:30N 34°12' E 135°06'0 0.0
2017-Dec-08 14:00N 34°12' E 135°06'0 0.1
2017-Dec-08 13:30N 34°12' E 135°06'0 0.0
2017-Dec-08 13:00N 34°12' E 135°06'0 0.0
2017-Dec-08 12:30N 34°12' E 135°06'0 0.0
2017-Dec-08 12:00N 34°12' E 135°06'0 0.0
2017-Dec-08 11:30N 34°12' E 135°06'0 0.0
2017-Dec-08 11:00N 34°12' E 135°06'0 0.0
2017-Dec-08 10:30N 34°12' E 135°06'0 0.0
2017-Dec-08 10:00N 34°12' E 135°06'0 0.0
2017-Dec-08 09:30N 34°12' E 135°06'2 4.9
2017-Dec-08 09:00N 34°14' E 135°05'3 6.9
2017-Dec-08 08:30N 34°17' E 135°04'713.8
2017-Dec-08 08:00N 34°23' E 135°08'713.2
2017-Dec-08 07:30N 34°28' E 135°13'612.2
2017-Dec-08 07:00N 34°33' E 135°18'611.4
2017-Dec-08 06:31N 34°36' E 135°23'3 4.2
2017-Dec-08 05:52N 34°35' E 135°26'0 0.0
2017-Dec-08 05:28N 34°35' E 135°26'0 0.0
2017-Dec-08 04:58N 34°35' E 135°26'0 0.4
2017-Dec-08 04:28N 34°35' E 135°26'0 0.9
2017-Dec-08 04:00N 34°35' E 135°27'0 0.5
2017-Dec-08 03:25N 34°34' E 135°27'0 0.0
2017-Dec-08 02:58N 34°34' E 135°27'0 0.1
2017-Dec-08 02:28N 34°35' E 135°27'0 0.1
2017-Dec-08 01:58N 34°35' E 135°27'0 0.0
2017-Dec-08 01:28N 34°35' E 135°27'0 0.0
2017-Dec-08 00:55N 34°35' E 135°27'0 0.1
2017-Dec-08 00:25N 34°35' E 135°27'0 0.0
2017-Dec-07 23:46N 34°35' E 135°27'0 0.0
2017-Dec-07 23:28N 34°35' E 135°27'0 0.0
2017-Dec-07 22:58N 34°35' E 135°27'0 0.0
2017-Dec-07 22:28N 34°35' E 135°27'0 0.0
2017-Dec-07 21:55N 34°35' E 135°27'0 0.0
2017-Dec-07 21:28N 34°35' E 135°27'0 0.0
2017-Dec-07 20:55N 34°35' E 135°27'0 0.0
2017-Dec-07 20:28N 34°35' E 135°27'0 0.0
2017-Dec-07 19:58N 34°35' E 135°27'0 0.0
2017-Dec-07 19:28N 34°35' E 135°27'0 0.0
2017-Dec-07 18:58N 34°35' E 135°27'0 0.0
2017-Dec-07 18:28N 34°35' E 135°27'0 0.0
2017-Dec-07 17:58N 34°35' E 135°27'0 0.0
2017-Dec-07 17:28N 34°35' E 135°27'0 0.0
2017-Dec-07 16:55N 34°35' E 135°27'0 0.0
2017-Dec-07 16:25N 34°35' E 135°27'0 0.0
2017-Dec-07 15:58N 34°35' E 135°27'0 0.0
2017-Dec-07 15:28N 34°35' E 135°27'0 0.0
2017-Dec-07 14:58N 34°35' E 135°27'0 0.0
2017-Dec-07 14:25N 34°35' E 135°27'0 0.0
2017-Dec-07 13:55N 34°35' E 135°27'0 0.0
2017-Dec-07 13:28N 34°35' E 135°27'0 0.0
2017-Dec-07 12:58N 34°35' E 135°27'0 0.1
2017-Dec-07 12:30N 34°35' E 135°27'3 6.0
2017-Dec-07 12:00N 34°36' E 135°24'510.8
2017-Dec-07 11:30N 34°33' E 135°18'613.0
2017-Dec-07 11:00N 34°28' E 135°13'612.3
2017-Dec-07 10:30N 34°24' E 135°08'612.2
2017-Dec-07 10:00N 34°19' E 135°04'612.0
2017-Dec-07 09:31N 34°13' E 135°03'612.6
2017-Dec-07 09:00N 34°07' E 135°03'612.6
2017-Dec-07 08:30N 34°00' E 135°02'  
2017-Dec-04 10:30N 35°10' E 139°46'713.1
2017-Dec-04 10:00N 35°17' E 139°45'713.2
2017-Dec-04 09:30N 35°23' E 139°42'612.7
2017-Dec-04 09:00N 35°27' E 139°48'612.7
2017-Dec-04 08:30N 35°32' E 139°53'511.0
2017-Dec-04 08:00N 35°37' E 139°49'1 0.1
2017-Dec-03 23:13N 35°37' E 139°48'0 0.0
2017-Dec-03 21:40N 35°37' E 139°48'0 0.6
2017-Dec-03 21:25N 35°37' E 139°48'0 0.0
2017-Dec-03 20:55N 35°37' E 139°48'0 0.0
2017-Dec-03 20:28N 35°37' E 139°48'0 0.0
2017-Dec-03 19:43N 35°37' E 139°48'0 0.0
2017-Dec-03 19:28N 35°37' E 139°48'0 0.0
2017-Dec-03 18:52N 35°37' E 139°48'0 0.0
2017-Dec-03 18:25N 35°37' E 139°48'0 0.0
2017-Dec-03 17:55N 35°37' E 139°48'0 0.0
2017-Dec-03 17:16N 35°37' E 139°48'0 0.0
2017-Dec-03 16:55N 35°37' E 139°48'0 0.0
2017-Dec-03 16:13N 35°37' E 139°48'0 0.0
2017-Dec-03 15:55N 35°37' E 139°48'0 0.0
2017-Dec-03 15:25N 35°37' E 139°48'0 0.0
2017-Dec-03 14:55N 35°37' E 139°48'0 0.0
2017-Dec-03 13:43N 35°37' E 139°48'0 0.0
2017-Dec-03 12:55N 35°37' E 139°48'0 0.0
2017-Dec-03 12:25N 35°37' E 139°48'0 0.0
2017-Dec-03 11:49N 35°37' E 139°48'0 0.0
2017-Dec-03 11:19N 35°37' E 139°48'0 0.0
2017-Dec-03 10:52N 35°37' E 139°48'0 0.0
2017-Dec-03 10:19N 35°37' E 139°48'0 0.0
2017-Dec-03 09:58N 35°37' E 139°48'0 0.0
2017-Dec-03 09:28N 35°37' E 139°48'0 0.0
2017-Dec-03 08:52N 35°37' E 139°48'0 0.0
2017-Dec-03 08:22N 35°37' E 139°48'0 0.0
2017-Dec-03 07:58N 35°37' E 139°48'0 0.0
2017-Dec-03 06:37N 35°37' E 139°48'0 0.0
2017-Dec-03 06:13N 35°37' E 139°48'0 0.0
2017-Dec-03 04:31N 35°37' E 139°48'0 0.0
2017-Dec-03 04:28N 35°37' E 139°48'0 0.0
2017-Dec-03 03:58N 35°37' E 139°48'0 0.0
2017-Dec-03 03:13N 35°37' E 139°48'0 0.0
2017-Dec-03 02:55N 35°37' E 139°48'0 0.0
2017-Dec-03 02:19N 35°37' E 139°48'0 0.0
2017-Dec-03 01:55N 35°37' E 139°48'0 0.0
2017-Dec-03 01:28N 35°37' E 139°48'0 0.0
2017-Dec-03 00:49N 35°37' E 139°48'0 0.0
2017-Dec-03 00:28N 35°37' E 139°48'0 0.0
2017-Dec-02 23:58N 35°37' E 139°48'0 0.0
2017-Dec-02 23:28N 35°37' E 139°48'0 0.0
2017-Dec-02 22:52N 35°37' E 139°48'0 0.0
2017-Dec-02 22:22N 35°37' E 139°48'0 0.0
2017-Dec-02 21:37N 35°37' E 139°48'0 0.0
2017-Dec-02 21:16N 35°37' E 139°48'0 0.0
2017-Dec-02 20:34N 35°37' E 139°48'0 0.1
2017-Dec-02 20:28N 35°37' E 139°48'0 0.0
2017-Dec-02 19:58N 35°37' E 139°48'0 0.0
2017-Dec-02 19:28N 35°37' E 139°48'0 0.0
2017-Dec-02 18:58N 35°37' E 139°48'0 0.0
2017-Dec-02 18:28N 35°37' E 139°48'0 0.0
2017-Dec-02 17:58N 35°37' E 139°48'0 0.0
2017-Dec-02 17:28N 35°37' E 139°48'0 0.0
2017-Dec-02 16:58N 35°37' E 139°48'0 0.0
2017-Dec-02 16:28N 35°37' E 139°48'0 0.0
2017-Dec-02 15:55N 35°37' E 139°48'0 0.0
2017-Dec-02 15:28N 35°37' E 139°48'0 0.0
2017-Dec-02 14:46N 35°37' E 139°48'0 0.0
2017-Dec-02 14:16N 35°37' E 139°48'0 0.0
2017-Dec-02 13:58N 35°37' E 139°48'0 0.0
2017-Dec-02 13:16N 35°37' E 139°48'0 0.0
2017-Dec-02 12:58N 35°37' E 139°48'0 0.0
2017-Dec-02 12:28N 35°37' E 139°48'0 0.0
2017-Dec-02 11:58N 35°37' E 139°48'0 0.0
2017-Dec-02 11:28N 35°37' E 139°48'0 0.0
2017-Dec-02 10:55N 35°37' E 139°48'0 0.0
2017-Dec-02 10:28N 35°37' E 139°48'0 0.0
2017-Dec-02 09:58N 35°37' E 139°48'0 0.0
2017-Dec-02 09:28N 35°37' E 139°48'0 0.0
2017-Dec-02 08:58N 35°37' E 139°48'0 0.0
2017-Dec-02 08:28N 35°37' E 139°48'0 0.0
2017-Dec-02 07:55N 35°37' E 139°48'0 0.0
2017-Dec-02 07:28N 35°37' E 139°48'0 0.0
2017-Dec-02 06:58N 35°37' E 139°48'0 0.0
2017-Dec-02 06:25N 35°37' E 139°48'0 0.0
2017-Dec-02 05:58N 35°37' E 139°48'0 0.0
2017-Dec-02 05:28N 35°37' E 139°48'0 0.0
2017-Dec-02 04:58N 35°37' E 139°48'0 0.0
2017-Dec-02 04:28N 35°37' E 139°48'0 0.0
2017-Dec-02 03:58N 35°37' E 139°48'0 0.0
2017-Dec-02 03:28N 35°37' E 139°48'0 0.0
2017-Dec-02 02:58N 35°37' E 139°48'0 0.0
2017-Dec-02 02:31N 35°37' E 139°48'0 0.0
2017-Dec-02 02:01N 35°37' E 139°48'0 0.0
2017-Dec-02 01:30N 35°37' E 139°48'0 0.0
2017-Dec-02 01:01N 35°37' E 139°48'0 0.0
2017-Dec-02 00:30N 35°37' E 139°48'0 0.0
2017-Dec-02 00:00N 35°37' E 139°48'0 0.5
2017-Dec-01 23:30N 35°37' E 139°48'4 7.2
2017-Dec-01 23:01N 35°36' E 139°52'1 2.1
2017-Dec-01 22:31N 35°35' E 139°53'0 0.1
2017-Dec-01 21:57N 35°35' E 139°53'0 0.0
2017-Dec-01 20:30N 35°35' E 139°53'0 0.0
2017-Dec-01 19:56N 35°35' E 139°53'0 0.0
2017-Dec-01 19:18N 35°35' E 139°53'0 0.0
2017-Dec-01 18:42N 35°35' E 139°53'0 0.0
2017-Dec-01 18:29N 35°35' E 139°53'0 0.0
2017-Dec-01 17:57N 35°35' E 139°53'0 0.0
2017-Dec-01 17:19N 35°35' E 139°53'0 0.2
2017-Dec-01 17:01N 35°35' E 139°53'  

Dump ship's entire track history